CheckWX is a tool to help pilots better visualize weather data.  It is not intended as a substitute for an official pre-flight weather briefing.

13:08:51 UTC

URRP TAF
Platov International Airport
Rostov Oblast, Russian Federation
TAF URRP 271058Z 2712/2812 24003G09MPS 9999 SCT015 TEMPO 2715/2809 22003G09MPS 3100 BR BKN011 PROB40 TEMPO 2715/2809 0300 FZFG BKN002

Jan-27@
12:00 UTC

Jan-27 @ 12:00 UTC

Jan-28@
12:00 UTC

Jan-28 @ 12:00 UTC

TAF URRP 271058Z 2712/2812 24003G09MPS 9999 SCT015
Wind
  • 240° at 6 KTS
  • {Gusting to 17 KTS
Cloud Levels
  • Scattered at 1,500' AGL

Jan-27@
15:00 UTC

Jan-27 @ 15:00 UTC

Jan-28@
09:00 UTC

Jan-28 @ 09:00 UTC

TEMPO 2715/2809 22003G09MPS 3100 BR BKN011

Temporary

Temporary Changes expected for less than half the time period

Wind
  • 220° at 6 KTS
  • {Gusting to 17 KTS
Conditions
Mist
Cloud Levels
  • Broken at 1,100' AGL

Jan-27@
15:00 UTC

Jan-27 @ 15:00 UTC

Jan-28@
09:00 UTC

Jan-28 @ 09:00 UTC

PROB40 TEMPO 2715/2809 0300 FZFG BKN002

Temporary - 40% Likelihood

Temporary - 40% Likelihood during this time.

Conditions
Freezing Fog
Cloud Levels
  • Broken at 200' AGL